createdAt,value
2019-04-16T00:00:11.841Z,0.00
2019-04-16T00:01:11.229Z,0.00
2019-04-16T00:02:08.993Z,0.00
2019-04-16T00:03:08.937Z,0.00
2019-04-16T00:04:08.880Z,0.00
2019-04-16T00:05:08.823Z,0.00
2019-04-16T00:06:08.764Z,0.00
2019-04-16T00:07:08.707Z,0.00
2019-04-16T00:08:26.632Z,0.00
2019-04-16T00:09:08.592Z,0.00
2019-04-16T00:10:08.539Z,0.00
2019-04-16T00:11:08.477Z,0.00
2019-04-16T00:12:08.420Z,0.00
2019-04-16T00:13:08.364Z,0.00
2019-04-16T00:14:08.304Z,0.00
2019-04-16T00:15:08.250Z,0.00
2019-04-16T00:16:12.687Z,0.00
2019-04-16T00:17:08.132Z,0.00
2019-04-16T00:18:08.075Z,0.00
2019-04-16T00:19:08.019Z,0.00
2019-04-16T00:20:07.965Z,0.00
2019-04-16T00:21:09.902Z,0.00
2019-04-16T00:22:11.538Z,0.00
2019-04-16T00:23:07.872Z,0.00
2019-04-16T00:24:07.730Z,0.00
2019-04-16T00:25:07.680Z,0.00
2019-04-16T00:26:07.619Z,0.00
2019-04-16T00:27:07.558Z,0.00
2019-04-16T00:28:07.508Z,0.00
2019-04-16T00:29:07.444Z,0.00
2019-04-16T00:30:07.385Z,0.00
2019-04-16T00:31:07.329Z,0.00
2019-04-16T00:32:09.108Z,0.00
2019-04-16T00:33:07.517Z,0.00
2019-04-16T00:34:07.156Z,0.00
2019-04-16T00:35:07.099Z,0.00
2019-04-16T00:36:07.043Z,0.00
2019-04-16T00:37:06.987Z,0.00
2019-04-16T00:38:06.925Z,0.00
2019-04-16T00:39:06.872Z,0.00
2019-04-16T00:40:06.815Z,0.00
2019-04-16T00:41:06.754Z,0.00
2019-04-16T00:42:06.697Z,0.00
2019-04-16T00:43:06.637Z,0.00
2019-04-16T00:44:06.582Z,0.00
2019-04-16T00:45:06.525Z,0.00
2019-04-16T00:46:08.652Z,0.00
2019-04-16T00:47:06.415Z,0.00
2019-04-16T00:48:06.351Z,0.00
2019-04-16T00:49:06.293Z,0.00
2019-04-16T00:50:06.236Z,0.00
2019-04-16T00:51:06.222Z,0.00
2019-04-16T00:52:07.131Z,0.00
2019-04-16T00:53:08.064Z,0.00
2019-04-16T00:54:09.918Z,0.00
2019-04-16T00:55:05.947Z,0.00
2019-04-16T00:56:05.890Z,0.00
2019-04-16T00:57:05.838Z,0.00
2019-04-16T00:58:05.774Z,0.00
2019-04-16T00:59:05.717Z,0.00
2019-04-16T01:00:05.672Z,0.00
2019-04-16T01:01:05.607Z,0.00
2019-04-16T01:02:05.548Z,0.00
2019-04-16T01:03:05.487Z,0.00
2019-04-16T01:04:05.717Z,0.00
2019-04-16T01:05:05.375Z,0.00
2019-04-16T01:06:07.932Z,0.00
2019-04-16T01:07:05.376Z,0.00
2019-04-16T01:08:05.202Z,0.00
2019-04-16T01:09:05.143Z,0.00
2019-04-16T01:10:05.086Z,0.00
2019-04-16T01:11:05.026Z,0.00
2019-04-16T01:12:05.050Z,0.00
2019-04-16T01:13:04.912Z,0.00
2019-04-16T01:14:04.948Z,0.00
2019-04-16T01:15:04.943Z,0.00
2019-04-16T01:16:04.738Z,0.00
2019-04-16T01:17:05.318Z,0.00
2019-04-16T01:18:07.833Z,0.00
2019-04-16T01:19:04.565Z,0.00
2019-04-16T01:20:04.508Z,0.00
2019-04-16T01:21:04.573Z,0.00
2019-04-16T01:22:04.457Z,0.00
2019-04-16T01:23:04.337Z,0.00
2019-04-16T01:24:04.277Z,0.00
2019-04-16T01:25:04.220Z,0.00
2019-04-16T01:26:04.162Z,0.00
2019-04-16T01:27:04.104Z,0.00
2019-04-16T01:28:04.046Z,0.00
2019-04-16T01:29:04.383Z,0.00
2019-04-16T01:30:06.154Z,0.00
2019-04-16T01:31:06.959Z,0.00
2019-04-16T01:32:04.002Z,0.00
2019-04-16T01:33:03.758Z,0.00
2019-04-16T01:34:03.701Z,0.00
2019-04-16T01:35:03.643Z,0.00
2019-04-16T01:36:03.588Z,0.00
2019-04-16T01:37:03.529Z,0.00
2019-04-16T01:38:03.471Z,0.00
2019-04-16T01:39:15.956Z,0.00
2019-04-16T01:40:03.355Z,0.00
2019-04-16T01:41:03.297Z,0.00
2019-04-16T01:42:03.241Z,0.00
2019-04-16T01:43:03.182Z,0.00
2019-04-16T01:44:03.124Z,0.00
2019-04-16T01:45:03.069Z,0.00
2019-04-16T01:46:03.008Z,0.00
2019-04-16T01:47:04.157Z,0.00
2019-04-16T01:48:06.724Z,0.00
2019-04-16T01:49:02.837Z,0.00
2019-04-16T01:50:02.777Z,0.00
2019-04-16T01:51:02.722Z,0.00
2019-04-16T01:52:02.668Z,0.00
2019-04-16T01:53:02.605Z,0.00
2019-04-16T01:54:02.620Z,0.00
2019-04-16T01:55:02.640Z,0.00
2019-04-16T01:56:02.610Z,0.00
2019-04-16T01:57:02.377Z,0.00
2019-04-16T01:58:03.513Z,0.00
2019-04-16T01:59:05.546Z,0.00
2019-04-16T02:00:06.868Z,0.00
2019-04-16T02:01:02.147Z,0.00
2019-04-16T02:02:02.084Z,0.00
2019-04-16T02:03:02.026Z,0.00
2019-04-16T02:04:01.974Z,0.00
2019-04-16T02:05:01.912Z,0.00
2019-04-16T02:06:01.853Z,0.00
2019-04-16T02:07:01.801Z,0.00
2019-04-16T02:08:01.739Z,0.00
2019-04-16T02:09:03.092Z,0.00
2019-04-16T02:10:06.452Z,0.00
2019-04-16T02:11:01.570Z,0.00
2019-04-16T02:12:01.599Z,0.00
2019-04-16T02:13:01.450Z,0.00
2019-04-16T02:14:01.392Z,0.00
2019-04-16T02:15:01.335Z,0.00
2019-04-16T02:16:01.276Z,0.00
2019-04-16T02:17:01.228Z,0.00
2019-04-16T02:18:01.159Z,0.00
2019-04-16T02:19:02.327Z,0.00
2019-04-16T02:20:01.997Z,0.00
2019-04-16T02:21:00.987Z,0.00
2019-04-16T02:22:00.928Z,0.00
2019-04-16T02:23:01.129Z,0.00
2019-04-16T02:24:01.127Z,0.00
2019-04-16T02:25:00.756Z,0.00
2019-04-16T02:26:00.697Z,0.00
2019-04-16T02:27:00.639Z,0.00
2019-04-16T02:28:00.586Z,0.00
2019-04-16T02:29:00.524Z,0.00
2019-04-16T02:30:02.663Z,0.00
2019-04-16T02:31:00.598Z,0.00
2019-04-16T02:32:00.363Z,0.00
2019-04-16T02:33:00.542Z,0.00
2019-04-16T02:34:00.754Z,0.00
2019-04-16T02:35:00.673Z,0.00
2019-04-16T02:36:00.563Z,0.00
2019-04-16T02:37:02.478Z,0.00
2019-04-16T02:38:00.003Z,0.00
2019-04-16T02:38:59.948Z,0.00
2019-04-16T02:39:59.888Z,0.00
2019-04-16T02:40:59.830Z,0.00
2019-04-16T02:41:59.771Z,0.00
2019-04-16T02:43:03.927Z,0.00
2019-04-16T02:43:59.656Z,0.00
2019-04-16T02:44:59.598Z,0.00
2019-04-16T02:45:59.549Z,0.00
2019-04-16T02:47:05.389Z,0.00
2019-04-16T02:47:59.432Z,0.00
2019-04-16T02:48:59.368Z,0.00
2019-04-16T02:49:59.346Z,0.00
2019-04-16T02:51:05.518Z,0.00
2019-04-16T02:51:59.192Z,0.00
2019-04-16T02:52:59.138Z,0.00
2019-04-16T02:54:00.031Z,0.00
2019-04-16T02:54:59.022Z,0.00
2019-04-16T02:55:58.962Z,0.00
2019-04-16T02:56:58.908Z,0.00
2019-04-16T02:58:00.261Z,0.00
2019-04-16T02:58:58.788Z,0.00
2019-04-16T02:59:58.729Z,0.00
2019-04-16T03:00:58.671Z,0.00
2019-04-16T03:01:58.613Z,0.00
2019-04-16T03:02:58.555Z,0.00
2019-04-16T03:03:58.502Z,0.00
2019-04-16T03:04:59.001Z,0.00
2019-04-16T03:06:00.905Z,0.00
2019-04-16T03:07:02.738Z,0.00
2019-04-16T03:07:58.264Z,0.00
2019-04-16T03:08:58.216Z,0.00
2019-04-16T03:10:01.489Z,0.00
2019-04-16T03:10:58.091Z,0.00
2019-04-16T03:11:58.037Z,0.00
2019-04-16T03:12:58.052Z,0.00
2019-04-16T03:13:59.284Z,0.00
2019-04-16T03:15:00.850Z,0.00
2019-04-16T03:15:57.802Z,0.00
2019-04-16T03:16:57.756Z,0.00
2019-04-16T03:17:57.685Z,0.00
2019-04-16T03:18:57.627Z,0.00
2019-04-16T03:19:57.569Z,0.00
2019-04-16T03:20:57.519Z,0.00
2019-04-16T03:21:59.054Z,0.00
2019-04-16T03:22:57.395Z,0.00
2019-04-16T03:23:57.336Z,0.00
2019-04-16T03:24:57.281Z,0.00
2019-04-16T03:25:57.231Z,0.00
2019-04-16T03:26:57.162Z,0.00
2019-04-16T03:27:57.104Z,0.00
2019-04-16T03:28:59.222Z,0.00
2019-04-16T03:30:02.995Z,0.00
2019-04-16T03:30:56.931Z,0.00
2019-04-16T03:31:59.234Z,0.00
2019-04-16T03:32:56.817Z,0.00
2019-04-16T03:33:56.756Z,0.00
2019-04-16T03:34:56.698Z,0.00
2019-04-16T03:35:57.819Z,0.00
2019-04-16T03:36:58.556Z,0.00
2019-04-16T03:37:56.523Z,0.00
2019-04-16T03:38:56.466Z,0.00
2019-04-16T03:39:56.408Z,0.00
2019-04-16T03:40:56.737Z,0.00
2019-04-16T03:41:56.892Z,0.00
2019-04-16T03:42:58.933Z,0.00
2019-04-16T03:43:56.175Z,0.00
2019-04-16T03:44:56.122Z,0.00
2019-04-16T03:45:56.092Z,0.00
2019-04-16T03:46:56.004Z,0.00
2019-04-16T03:47:55.948Z,0.00
2019-04-16T03:48:56.503Z,0.00
2019-04-16T03:49:56.418Z,0.00
2019-04-16T03:50:55.768Z,0.00
2019-04-16T03:51:55.711Z,0.00
2019-04-16T03:52:55.653Z,0.00
2019-04-16T03:53:55.594Z,0.00
2019-04-16T03:54:55.536Z,0.00
2019-04-16T03:55:58.353Z,0.00
2019-04-16T03:56:55.421Z,0.00
2019-04-16T03:57:55.367Z,0.00
2019-04-16T03:58:55.304Z,0.00
2019-04-16T03:59:55.250Z,0.00
2019-04-16T04:00:55.187Z,0.00
2019-04-16T04:01:55.128Z,0.00
2019-04-16T04:02:55.394Z,0.00
2019-04-16T04:03:57.553Z,0.00
2019-04-16T04:04:57.616Z,0.00
2019-04-16T04:05:54.896Z,0.00
2019-04-16T04:06:54.843Z,0.00
2019-04-16T04:07:55.486Z,0.00
2019-04-16T04:08:54.720Z,0.00
2019-04-16T04:09:55.592Z,0.00
2019-04-16T04:10:54.604Z,0.00
2019-04-16T04:11:54.546Z,0.00
2019-04-16T04:12:54.488Z,0.00
2019-04-16T04:13:54.430Z,0.00
2019-04-16T04:14:55.163Z,0.00
2019-04-16T04:15:55.243Z,0.00
2019-04-16T04:16:54.263Z,0.00
2019-04-16T04:17:54.205Z,0.00
2019-04-16T04:18:54.144Z,0.00
2019-04-16T04:19:54.081Z,0.00
2019-04-16T04:20:54.026Z,0.00
2019-04-16T04:21:54.494Z,0.00
2019-04-16T04:22:56.806Z,0.00
2019-04-16T04:23:53.854Z,0.00
2019-04-16T04:24:53.790Z,0.00
2019-04-16T04:25:53.731Z,0.00
2019-04-16T04:26:53.674Z,0.00
2019-04-16T04:27:53.615Z,0.00
2019-04-16T04:28:53.558Z,0.00
2019-04-16T04:29:53.656Z,0.00
2019-04-16T04:30:53.443Z,0.00
2019-04-16T04:31:53.382Z,0.00
2019-04-16T04:32:53.325Z,0.00
2019-04-16T04:33:53.266Z,0.00
2019-04-16T04:34:53.211Z,0.00
2019-04-16T04:35:53.148Z,0.00
2019-04-16T04:36:53.091Z,0.00
2019-04-16T04:37:53.031Z,0.00
2019-04-16T04:38:53.045Z,0.00
2019-04-16T04:39:52.917Z,0.00
2019-04-16T04:40:52.859Z,0.00
2019-04-16T04:41:56.464Z,0.00
2019-04-16T04:42:52.741Z,0.00
2019-04-16T04:43:52.698Z,0.00
2019-04-16T04:44:52.625Z,0.00
2019-04-16T04:45:52.571Z,0.00
2019-04-16T04:46:52.508Z,0.00
2019-04-16T04:47:52.450Z,0.00
2019-04-16T04:48:54.992Z,0.00
2019-04-16T04:49:52.335Z,0.00
2019-04-16T04:50:52.274Z,0.00
2019-04-16T04:51:52.215Z,0.00
2019-04-16T04:52:52.158Z,0.00
2019-04-16T04:53:52.101Z,0.00
2019-04-16T04:54:54.195Z,0.00
2019-04-16T04:55:54.443Z,0.00
2019-04-16T04:56:51.934Z,0.00
2019-04-16T04:57:51.868Z,0.00
2019-04-16T04:58:51.807Z,0.00
2019-04-16T04:59:51.750Z,0.00
2019-04-16T05:00:51.695Z,0.00
2019-04-16T05:01:51.633Z,0.00
2019-04-16T05:02:51.574Z,0.00
2019-04-16T05:03:51.517Z,4.00
2019-04-16T05:04:52.493Z,4.00
2019-04-16T05:05:53.289Z,4.00
2019-04-16T05:06:51.341Z,4.00
2019-04-16T05:07:51.285Z,0.00
2019-04-16T05:08:51.224Z,0.00
2019-04-16T05:09:51.167Z,0.00
2019-04-16T05:10:58.730Z,0.00
2019-04-16T05:11:51.050Z,0.00
2019-04-16T05:12:53.707Z,0.00
2019-04-16T05:13:53.510Z,4.00
2019-04-16T05:14:50.875Z,4.00
2019-04-16T05:15:50.816Z,4.00
2019-04-16T05:16:50.757Z,4.00
2019-04-16T05:17:50.698Z,0.00
2019-04-16T05:18:50.642Z,0.00
2019-04-16T05:19:50.582Z,0.00
2019-04-16T05:20:50.524Z,4.00
2019-04-16T05:21:50.866Z,4.00
2019-04-16T05:22:53.070Z,4.00
2019-04-16T05:23:50.348Z,0.00
2019-04-16T05:24:50.289Z,4.00
2019-04-16T05:25:50.231Z,4.00
2019-04-16T05:26:50.173Z,4.00
2019-04-16T05:27:50.118Z,4.00
2019-04-16T05:28:50.057Z,4.00
2019-04-16T05:29:50.002Z,8.00
2019-04-16T05:30:52.335Z,4.00
2019-04-16T05:31:49.883Z,8.00
2019-04-16T05:32:49.823Z,8.00
2019-04-16T05:33:49.767Z,4.00
2019-04-16T05:34:49.706Z,4.00
2019-04-16T05:35:49.650Z,4.00
2019-04-16T05:36:49.590Z,8.00
2019-04-16T05:37:51.450Z,8.00
2019-04-16T05:38:49.473Z,8.00
2019-04-16T05:39:49.422Z,8.00
2019-04-16T05:40:49.358Z,8.00
2019-04-16T05:41:50.530Z,4.00
2019-04-16T05:42:52.472Z,8.00
2019-04-16T05:43:49.184Z,8.00
2019-04-16T05:44:49.131Z,8.00
2019-04-16T05:45:49.063Z,8.00
2019-04-16T05:46:49.007Z,8.00
2019-04-16T05:47:49.676Z,12.00
2019-04-16T05:48:51.380Z,12.00
2019-04-16T05:49:48.830Z,8.00
2019-04-16T05:50:48.772Z,8.00
2019-04-16T05:51:48.711Z,8.00
2019-04-16T05:52:48.655Z,8.00
2019-04-16T05:53:48.595Z,8.00
2019-04-16T05:54:48.538Z,12.00
2019-04-16T05:55:50.042Z,12.00
2019-04-16T05:56:48.424Z,12.00
2019-04-16T05:57:48.362Z,8.00
2019-04-16T05:58:48.303Z,8.00
2019-04-16T05:59:48.244Z,8.00
2019-04-16T06:00:48.192Z,8.00
2019-04-16T06:01:48.130Z,8.00
2019-04-16T06:02:50.486Z,12.00
2019-04-16T06:03:52.848Z,12.00
2019-04-16T06:04:47.952Z,12.00
2019-04-16T06:05:47.896Z,12.00
2019-04-16T06:06:47.835Z,12.00
2019-04-16T06:07:47.776Z,12.00
2019-04-16T06:08:47.718Z,12.00
2019-04-16T06:09:47.686Z,8.00
2019-04-16T06:10:50.864Z,12.00
2019-04-16T06:11:47.543Z,12.00
2019-04-16T06:12:47.494Z,12.00
2019-04-16T06:13:47.429Z,12.00
2019-04-16T06:14:49.550Z,12.00
2019-04-16T06:15:47.308Z,12.00
2019-04-16T06:16:47.252Z,12.00
2019-04-16T06:17:47.200Z,12.00
2019-04-16T06:18:47.140Z,12.00
2019-04-16T06:19:47.505Z,16.00
2019-04-16T06:20:52.530Z,12.00
2019-04-16T06:21:46.957Z,12.00
2019-04-16T06:22:46.899Z,12.00
2019-04-16T06:23:48.383Z,12.00
2019-04-16T06:24:46.782Z,12.00
2019-04-16T06:25:46.728Z,12.00
2019-04-16T06:26:47.405Z,16.00
2019-04-16T06:27:46.609Z,16.00
2019-04-16T06:28:46.549Z,16.00
2019-04-16T06:29:47.143Z,12.00
2019-04-16T06:30:46.432Z,12.00
2019-04-16T06:31:46.379Z,12.00
2019-04-16T06:32:46.314Z,12.00
2019-04-16T06:33:46.256Z,12.00
2019-04-16T06:34:46.197Z,12.00
2019-04-16T06:35:46.139Z,16.00
2019-04-16T06:36:46.087Z,16.00
2019-04-16T06:37:46.025Z,16.00
2019-04-16T06:38:45.966Z,16.00
2019-04-16T06:39:45.910Z,16.00
2019-04-16T06:40:45.852Z,16.00
2019-04-16T06:41:48.332Z,12.00
2019-04-16T06:42:45.732Z,16.00
2019-04-16T06:43:45.672Z,16.00
2019-04-16T06:44:45.615Z,16.00
2019-04-16T06:45:45.554Z,16.00
2019-04-16T06:46:45.508Z,16.00
2019-04-16T06:47:45.440Z,16.00
2019-04-16T06:48:45.965Z,16.00
2019-04-16T06:49:48.244Z,16.00
2019-04-16T06:50:45.262Z,16.00
2019-04-16T06:51:45.205Z,16.00
2019-04-16T06:52:46.237Z,16.00
2019-04-16T06:53:45.086Z,16.00
2019-04-16T06:54:45.651Z,16.00
2019-04-16T06:55:44.970Z,16.00
2019-04-16T06:56:44.915Z,16.00
2019-04-16T06:57:44.852Z,16.00
2019-04-16T06:58:51.275Z,16.00
2019-04-16T06:59:44.737Z,16.00
2019-04-16T07:00:44.677Z,16.00
2019-04-16T07:01:44.617Z,20.00
2019-04-16T07:03:01.299Z,20.00
2019-04-16T07:03:44.502Z,20.00
2019-04-16T07:04:44.444Z,20.00
2019-04-16T07:05:44.384Z,16.00
2019-04-16T07:06:44.328Z,16.00
2019-04-16T07:07:46.781Z,20.00
2019-04-16T07:08:44.209Z,20.00
2019-04-16T07:09:45.865Z,20.00
2019-04-16T07:10:44.953Z,20.00
2019-04-16T07:11:54.339Z,20.00
2019-04-16T07:12:43.992Z,20.00
2019-04-16T07:13:43.918Z,20.00
2019-04-16T07:14:45.531Z,20.00
2019-04-16T07:15:43.799Z,20.00
2019-04-16T07:16:43.743Z,20.00
2019-04-16T07:17:43.686Z,20.00
2019-04-16T07:18:43.626Z,20.00
2019-04-16T07:19:43.567Z,20.00
2019-04-16T07:20:45.728Z,24.00
2019-04-16T07:21:43.452Z,24.00
2019-04-16T07:22:43.391Z,20.00
2019-04-16T07:23:45.938Z,20.00
2019-04-16T07:24:43.275Z,20.00
2019-04-16T07:25:44.225Z,20.00
2019-04-16T07:26:46.247Z,20.00
2019-04-16T07:27:43.166Z,20.00
2019-04-16T07:28:43.138Z,20.00
2019-04-16T07:29:46.190Z,20.00
2019-04-16T07:30:42.932Z,20.00
2019-04-16T07:31:42.865Z,20.00
2019-04-16T07:32:42.812Z,24.00
2019-04-16T07:33:42.747Z,20.00
2019-04-16T07:34:42.691Z,20.00
2019-04-16T07:35:42.643Z,24.00
2019-04-16T07:36:42.575Z,24.00
2019-04-16T07:37:42.514Z,24.00
2019-04-16T07:38:42.456Z,24.00
2019-04-16T07:39:42.742Z,20.00
2019-04-16T07:40:42.340Z,20.00
2019-04-16T07:41:43.217Z,20.00
2019-04-16T07:42:51.798Z,24.00
2019-04-16T07:43:42.169Z,24.00
2019-04-16T07:44:42.105Z,24.00
2019-04-16T07:45:42.047Z,24.00
2019-04-16T07:46:44.259Z,24.00
2019-04-16T07:47:41.933Z,24.00
2019-04-16T07:48:41.872Z,24.00
2019-04-16T07:49:41.814Z,24.00
2019-04-16T07:50:41.756Z,24.00
2019-04-16T07:51:41.698Z,20.00
2019-04-16T07:52:42.616Z,24.00
2019-04-16T07:53:41.579Z,24.00
2019-04-16T07:54:41.523Z,24.00
2019-04-16T07:55:41.465Z,24.00
2019-04-16T07:56:41.409Z,24.00
2019-04-16T07:57:41.350Z,24.00
2019-04-16T07:58:41.293Z,28.00
2019-04-16T07:59:41.231Z,28.00
2019-04-16T08:00:41.587Z,28.00
2019-04-16T08:01:44.085Z,24.00
2019-04-16T08:02:41.055Z,20.00
2019-04-16T08:03:40.997Z,24.00
2019-04-16T08:04:40.939Z,20.00
2019-04-16T08:05:41.829Z,20.00
2019-04-16T08:06:46.264Z,24.00
2019-04-16T08:07:40.764Z,24.00
2019-04-16T08:08:40.708Z,28.00
2019-04-16T08:09:40.646Z,28.00
2019-04-16T08:10:40.600Z,28.00
2019-04-16T08:11:40.530Z,24.00
2019-04-16T08:12:42.242Z,24.00
2019-04-16T08:13:40.414Z,24.00
2019-04-16T08:14:40.356Z,28.00
2019-04-16T08:15:40.303Z,24.00
2019-04-16T08:16:47.306Z,24.00
2019-04-16T08:17:40.180Z,28.00
2019-04-16T08:18:40.125Z,28.00
2019-04-16T08:19:40.064Z,28.00
2019-04-16T08:20:40.018Z,28.00
2019-04-16T08:21:40.669Z,28.00
2019-04-16T08:22:40.198Z,28.00
2019-04-16T08:23:39.850Z,28.00
2019-04-16T08:24:39.781Z,28.00
2019-04-16T08:25:39.733Z,28.00
2019-04-16T08:26:41.588Z,32.00
2019-04-16T08:27:39.598Z,28.00
2019-04-16T08:28:39.542Z,28.00
2019-04-16T08:29:39.482Z,28.00
2019-04-16T08:30:39.659Z,28.00
2019-04-16T08:31:40.797Z,28.00
2019-04-16T08:32:39.312Z,28.00
2019-04-16T08:33:39.265Z,28.00
2019-04-16T08:34:39.191Z,24.00
2019-04-16T08:35:39.136Z,32.00
2019-04-16T08:36:39.074Z,32.00
2019-04-16T08:37:48.800Z,32.00
2019-04-16T08:38:38.958Z,32.00
2019-04-16T08:39:39.844Z,32.00
2019-04-16T08:40:38.841Z,32.00
2019-04-16T08:41:38.781Z,28.00
2019-04-16T08:42:44.696Z,28.00
2019-04-16T08:43:38.672Z,28.00
2019-04-16T08:44:38.621Z,28.00
2019-04-16T08:45:39.917Z,28.00
2019-04-16T08:46:40.087Z,32.00
2019-04-16T08:47:38.433Z,32.00
2019-04-16T08:48:38.376Z,32.00
2019-04-16T08:49:38.318Z,32.00
2019-04-16T08:50:38.259Z,32.00
2019-04-16T08:51:38.205Z,32.00
2019-04-16T08:52:38.609Z,32.00
2019-04-16T08:53:38.084Z,32.00
2019-04-16T08:54:38.027Z,32.00
2019-04-16T08:55:37.985Z,32.00
2019-04-16T08:56:37.911Z,32.00
2019-04-16T08:57:37.853Z,32.00
2019-04-16T08:58:38.555Z,28.00
2019-04-16T08:59:39.451Z,32.00
2019-04-16T09:00:37.679Z,32.00
2019-04-16T09:01:37.631Z,32.00
2019-04-16T09:02:37.561Z,32.00
2019-04-16T09:03:37.507Z,32.00
2019-04-16T09:04:37.448Z,32.00
2019-04-16T09:05:41.253Z,32.00
2019-04-16T09:06:37.331Z,32.00
2019-04-16T09:07:37.273Z,32.00
2019-04-16T09:08:37.215Z,32.00
2019-04-16T09:09:37.154Z,32.00
2019-04-16T09:10:37.100Z,32.00
2019-04-16T09:11:37.040Z,32.00
2019-04-16T09:12:40.731Z,32.00
2019-04-16T09:13:36.922Z,32.00
2019-04-16T09:14:36.865Z,32.00
2019-04-16T09:15:36.807Z,36.00
2019-04-16T09:16:36.748Z,32.00
2019-04-16T09:17:36.691Z,32.00
2019-04-16T09:18:36.632Z,32.00
2019-04-16T09:19:36.574Z,32.00
2019-04-16T09:20:37.745Z,36.00
2019-04-16T09:21:36.458Z,36.00
2019-04-16T09:22:48.100Z,36.00
2019-04-16T09:23:36.343Z,20.00
2019-04-16T09:24:40.542Z,32.00
2019-04-16T09:25:36.225Z,36.00
2019-04-16T09:26:36.168Z,36.00
2019-04-16T09:27:36.111Z,36.00
2019-04-16T09:28:36.053Z,36.00
2019-04-16T09:29:39.086Z,36.00
2019-04-16T09:30:35.936Z,32.00
2019-04-16T09:31:35.879Z,32.00
2019-04-16T09:32:35.820Z,36.00
2019-04-16T09:33:35.761Z,36.00
2019-04-16T09:34:39.406Z,36.00
2019-04-16T09:35:35.646Z,36.00
2019-04-16T09:36:35.590Z,36.00
2019-04-16T09:37:36.007Z,32.00
2019-04-16T09:38:35.473Z,36.00
2019-04-16T09:39:35.415Z,32.00
2019-04-16T09:40:35.356Z,36.00
2019-04-16T09:41:35.299Z,36.00
2019-04-16T09:42:35.240Z,36.00
2019-04-16T09:43:35.183Z,36.00
2019-04-16T09:44:35.608Z,36.00
2019-04-16T09:45:37.357Z,40.00
2019-04-16T09:46:51.876Z,36.00
2019-04-16T09:47:34.951Z,20.00
2019-04-16T09:48:35.596Z,36.00
2019-04-16T09:49:37.590Z,32.00
2019-04-16T09:50:34.779Z,36.00
2019-04-16T09:51:34.720Z,36.00
2019-04-16T09:52:34.661Z,36.00
2019-04-16T09:53:39.934Z,36.00
2019-04-16T09:54:34.545Z,40.00
2019-04-16T09:55:34.488Z,36.00
2019-04-16T09:56:34.431Z,36.00
2019-04-16T09:57:34.371Z,36.00
2019-04-16T09:58:34.862Z,40.00
2019-04-16T09:59:34.256Z,32.00
2019-04-16T10:00:34.198Z,40.00
2019-04-16T10:01:34.140Z,36.00
2019-04-16T10:02:34.083Z,36.00
2019-04-16T10:03:34.028Z,32.00
2019-04-16T10:04:33.966Z,32.00
2019-04-16T10:05:33.909Z,36.00
2019-04-16T10:06:33.865Z,36.00
2019-04-16T10:07:33.799Z,32.00
2019-04-16T10:08:33.738Z,36.00
2019-04-16T10:09:33.681Z,36.00
2019-04-16T10:10:33.621Z,32.00
2019-04-16T10:11:35.735Z,40.00
2019-04-16T10:12:33.508Z,36.00
2019-04-16T10:13:36.023Z,36.00
2019-04-16T10:14:33.388Z,40.00
2019-04-16T10:15:33.330Z,32.00
2019-04-16T10:16:33.272Z,32.00
2019-04-16T10:17:33.214Z,36.00
2019-04-16T10:18:35.066Z,36.00
2019-04-16T10:19:33.099Z,36.00
2019-04-16T10:20:33.042Z,36.00
2019-04-16T10:21:32.992Z,40.00
2019-04-16T10:22:32.954Z,36.00
2019-04-16T10:23:32.873Z,36.00
2019-04-16T10:24:32.811Z,36.00
2019-04-16T10:25:33.605Z,36.00
2019-04-16T10:26:32.713Z,40.00
2019-04-16T10:27:32.656Z,40.00
2019-04-16T10:28:34.019Z,36.00
2019-04-16T10:29:32.545Z,40.00
2019-04-16T10:30:32.464Z,36.00
2019-04-16T10:31:32.405Z,36.00
2019-04-16T10:32:32.348Z,40.00
2019-04-16T10:33:32.289Z,36.00
2019-04-16T10:34:32.233Z,40.00
2019-04-16T10:35:32.174Z,40.00
2019-04-16T10:36:36.804Z,40.00
2019-04-16T10:37:32.061Z,36.00
2019-04-16T10:38:32.006Z,40.00
2019-04-16T10:39:31.948Z,40.00
2019-04-16T10:40:31.887Z,36.00
2019-04-16T10:41:31.857Z,36.00
2019-04-16T10:42:31.774Z,40.00
2019-04-16T10:43:43.806Z,36.00
2019-04-16T10:44:31.656Z,36.00
2019-04-16T10:45:31.597Z,32.00
2019-04-16T10:46:31.542Z,32.00
2019-04-16T10:47:31.483Z,32.00
2019-04-16T10:48:31.448Z,32.00
2019-04-16T10:49:31.366Z,36.00
2019-04-16T10:50:31.334Z,36.00
2019-04-16T10:51:31.254Z,36.00
2019-04-16T10:52:31.202Z,24.00
2019-04-16T10:53:31.146Z,32.00
2019-04-16T10:54:33.709Z,32.00
2019-04-16T10:55:31.044Z,32.00
2019-04-16T10:56:30.967Z,32.00
2019-04-16T10:57:30.909Z,40.00
2019-04-16T10:58:30.858Z,40.00
2019-04-16T10:59:30.809Z,40.00
2019-04-16T11:00:30.735Z,40.00
2019-04-16T11:01:34.797Z,40.00
2019-04-16T11:02:30.628Z,40.00
2019-04-16T11:03:34.409Z,32.00
2019-04-16T11:04:30.526Z,40.00
2019-04-16T11:05:30.456Z,40.00
2019-04-16T11:06:30.407Z,40.00
2019-04-16T11:07:30.334Z,40.00
2019-04-16T11:08:30.296Z,40.00
2019-04-16T11:09:30.215Z,40.00
2019-04-16T11:10:30.195Z,40.00
2019-04-16T11:11:30.121Z,40.00
2019-04-16T11:12:30.063Z,40.00
2019-04-16T11:13:30.015Z,40.00
2019-04-16T11:14:29.981Z,40.00
2019-04-16T11:15:29.869Z,40.00
2019-04-16T11:16:29.822Z,40.00
2019-04-16T11:17:29.784Z,40.00
2019-04-16T11:18:29.698Z,36.00
2019-04-16T11:19:29.649Z,40.00
2019-04-16T11:20:29.605Z,40.00
2019-04-16T11:21:29.524Z,40.00
2019-04-16T11:22:29.475Z,40.00
2019-04-16T11:23:29.415Z,40.00
2019-04-16T11:24:29.389Z,40.00
2019-04-16T11:25:29.294Z,40.00
2019-04-16T11:26:29.237Z,40.00
2019-04-16T11:27:29.180Z,44.00
2019-04-16T11:28:29.131Z,40.00
2019-04-16T11:29:29.073Z,40.00
2019-04-16T11:30:29.066Z,40.00
2019-04-16T11:31:28.968Z,40.00
2019-04-16T11:32:28.893Z,40.00
2019-04-16T11:33:28.877Z,40.00
2019-04-16T11:34:28.779Z,44.00
2019-04-16T11:35:28.746Z,44.00
2019-04-16T11:36:30.955Z,40.00
2019-04-16T11:37:32.278Z,40.00
2019-04-16T11:38:28.557Z,40.00
2019-04-16T11:39:28.498Z,40.00
2019-04-16T11:40:28.434Z,40.00
2019-04-16T11:41:28.421Z,40.00
2019-04-16T11:42:28.320Z,36.00
2019-04-16T11:43:28.267Z,36.00
2019-04-16T11:44:28.205Z,40.00
2019-04-16T11:45:28.161Z,36.00
2019-04-16T11:46:28.193Z,40.00
2019-04-16T11:47:28.440Z,40.00
2019-04-16T11:48:28.004Z,36.00
2019-04-16T11:49:28.024Z,36.00
2019-04-16T11:50:27.860Z,36.00
2019-04-16T11:51:27.812Z,28.00
2019-04-16T11:52:27.779Z,40.00
2019-04-16T11:53:27.686Z,36.00
2019-04-16T11:54:27.630Z,32.00
2019-04-16T11:55:27.599Z,36.00
2019-04-16T11:56:27.566Z,36.00
2019-04-16T11:57:29.374Z,36.00
2019-04-16T11:58:27.402Z,36.00
2019-04-16T11:59:27.344Z,40.00
2019-04-16T12:00:27.293Z,40.00
2019-04-16T12:01:27.235Z,44.00
2019-04-16T12:02:27.172Z,40.00
2019-04-16T12:03:27.138Z,40.00
2019-04-16T12:04:27.078Z,44.00
2019-04-16T12:05:27.045Z,44.00
2019-04-16T12:06:28.594Z,40.00
2019-04-16T12:07:26.891Z,40.00
2019-04-16T12:08:26.858Z,44.00
2019-04-16T12:09:26.811Z,40.00
2019-04-16T12:10:26.719Z,40.00
2019-04-16T12:11:26.661Z,40.00
2019-04-16T12:12:26.629Z,40.00
2019-04-16T12:13:26.566Z,40.00
2019-04-16T12:14:32.405Z,40.00
2019-04-16T12:15:26.430Z,40.00
2019-04-16T12:16:26.380Z,40.00
2019-04-16T12:17:26.328Z,40.00
2019-04-16T12:18:26.267Z,40.00
2019-04-16T12:19:26.199Z,40.00
2019-04-16T12:20:26.143Z,40.00
2019-04-16T12:21:26.122Z,40.00
2019-04-16T12:22:26.145Z,40.00
2019-04-16T12:23:26.096Z,40.00
2019-04-16T12:24:25.974Z,40.00
2019-04-16T12:25:26.577Z,40.00
2019-04-16T12:26:25.825Z,36.00
2019-04-16T12:27:25.748Z,40.00
2019-04-16T12:28:25.685Z,36.00
2019-04-16T12:29:25.647Z,40.00
2019-04-16T12:30:25.595Z,40.00
2019-04-16T12:31:25.522Z,36.00
2019-04-16T12:32:27.065Z,40.00
2019-04-16T12:33:25.445Z,40.00
2019-04-16T12:34:25.380Z,40.00
2019-04-16T12:35:25.330Z,40.00
2019-04-16T12:36:25.251Z,36.00
2019-04-16T12:37:25.171Z,40.00
2019-04-16T12:38:25.213Z,40.00
2019-04-16T12:39:25.058Z,44.00
2019-04-16T12:40:25.000Z,40.00
2019-04-16T12:41:24.975Z,44.00
2019-04-16T12:42:24.920Z,44.00
2019-04-16T12:43:24.839Z,40.00
2019-04-16T12:44:25.329Z,40.00
2019-04-16T12:45:24.771Z,40.00
2019-04-16T12:46:24.658Z,44.00
2019-04-16T12:47:24.637Z,40.00
2019-04-16T12:48:24.543Z,44.00
2019-04-16T12:49:24.513Z,48.00
2019-04-16T12:50:24.466Z,48.00
2019-04-16T12:51:24.377Z,44.00
2019-04-16T12:52:24.316Z,44.00
2019-04-16T12:53:24.355Z,44.00
2019-04-16T12:54:25.563Z,44.00
2019-04-16T12:55:24.189Z,48.00
2019-04-16T12:56:24.117Z,44.00
2019-04-16T12:57:24.065Z,40.00
2019-04-16T12:58:25.640Z,40.00
2019-04-16T12:59:23.917Z,44.00
2019-04-16T13:00:27.333Z,40.00
2019-04-16T13:01:23.803Z,40.00
2019-04-16T13:02:23.746Z,40.00
2019-04-16T13:03:23.689Z,44.00